Latest Weather Observations for Cocos Island

IDW60801

Issued at 9:23 pm WST Wednesday 8 July 2020 (issued every 10 minutes, with the page automatically refreshed every 10 minutes)

About weather observations | Map of weather stations | Latest weather observations for WA | Other Formats
Station Details ID: 200284 Name: COCOS ISLAND AIRPORT Lat: -12.19 Lon: 96.83 Height: 3.0 m
Data from the previous 72 hours. | See also: Recent months at Cocos Island
Date/Time
WST
Temp
°C
App
Temp
°C
Dew
Point
°C
Rel
Hum
%
Delta-T
°C
Wind Press
QNH
hPa
Press
MSL
hPa
Rain since
9am
mm
Dir  Spd
km/h
Gust
km/h
Spd
kts
Gust
kts
08/09:00pm 27.0 28.0 22.8 78 2.8 E 22 33 12 18 1012.8 1012.8 0.0
08/08:30pm 27.0 29.3 23.5 81 2.4 ESE 17 30 9 16 1012.6 1012.6 0.0
08/08:00pm 27.0 28.8 23.3 80 2.5 ESE 19 37 10 20 1012.3 1012.3 0.0
08/07:30pm 27.0 28.8 23.3 80 2.5 ESE 19 30 10 16 1012.2 1012.2 0.0
08/07:00pm 27.0 28.7 23.0 79 2.7 ESE 19 32 10 17 1012.3 1012.3 0.0
08/06:30pm 27.1 29.5 23.6 81 2.4 ESE 17 30 9 16 1012.0 1012.0 0.0
08/06:00pm 27.3 28.4 23.1 78 2.9 E 22 35 12 19 1011.9 1011.9 0.0
08/05:30pm 27.3 29.1 23.3 79 2.7 ESE 19 33 10 18 1011.8 1011.8 0.0
08/05:00pm 27.4 29.6 23.2 78 2.9 ESE 17 28 9 15 1011.8 1011.8 0.0
08/04:30pm 27.6 29.8 23.2 77 3.0 ESE 17 30 9 16 1011.8 1011.8 0.0
08/04:00pm 27.6 29.7 23.8 80 2.6 ESE 19 28 10 15 1012.0 1012.0 0.0
08/03:30pm 27.6 29.6 23.6 79 2.7 ESE 19 30 10 16 1012.2 1012.2 0.0
08/03:00pm 27.5 29.8 23.5 79 2.7 E 17 30 9 16 1012.4 1012.4 0.0
08/02:30pm 27.5 29.3 23.5 79 2.7 ESE 20 33 11 18 1012.7 1012.7 0.0
08/02:00pm 28.0 29.8 23.2 75 3.3 ESE 19 32 10 17 1013.0 1013.0 0.0
08/01:30pm 27.6 29.4 24.2 82 2.4 SE 22 28 12 15 1013.3 1013.3 0.0
08/01:00pm 26.8 27.9 23.7 83 2.1 SE 24 30 13 16 1013.7 1013.7 0.0
08/12:30pm 26.7 27.5 23.8 84 2.0 ESE 26 35 14 19 1013.8 1013.8 0.0
08/12:00pm 27.4 29.1 23.4 79 2.7 ESE 20 33 11 18 1014.0 1014.0 0.0
08/11:30am 26.8 28.6 23.3 81 2.4 ESE 19 28 10 15 1014.0 1014.0 0.0
08/11:00am 27.1 28.7 23.8 82 2.3 ESE 22 33 12 18 1014.0 1014.0 12.8
08/10:30am 26.8 28.4 23.3 81 2.4 ESE 20 33 11 18 1014.2 1014.2 12.8
08/10:00am 26.5 28.0 23.0 81 2.4 ESE 20 35 11 19 1014.0 1014.0 12.8
08/09:30am 26.2 27.0 23.1 83 2.1 ESE 24 39 13 21 1013.6 1013.6 12.8
08/09:13am 26.5 25.7 23.0 81 2.4 ESE 32 54 17 29 1013.4 1013.4 12.8
08/09:00am 26.3 27.0 23.6 85 1.8 ESE 26 41 14 22 1013.3 1013.3 12.8
08/08:30am 26.1 25.9 24.1 89 1.4 ESE 32 39 17 21 1013.0 1013.0 12.8
08/08:00am 25.7 26.4 24.3 92 1.0 SE 28 35 15 19 1012.7 1012.7 12.6
08/07:44am 25.0 26.5 24.3 96 0.5 SE 24 32 13 17 1012.7 1012.7 12.6
08/07:30am 24.5 24.9 23.8 96 0.5 ESE 28 35 15 19 1012.5 1012.5 12.6
08/07:03am 23.5 22.4 22.5 94 0.7 E 32 50 17 27 1012.6 1012.6 7.4
08/07:00am 23.9 22.5 22.9 94 0.7 E 35 50 19 27 1012.5 1012.5 6.0
08/06:52am 24.4 22.9 22.7 90 1.1 E 35 50 19 27 1012.5 1012.5 4.6
08/06:48am 24.9 25.0 23.3 91 1.1 ENE 28 48 15 26 1012.6 1012.6 4.0
08/06:34am 24.9 23.5 22.2 85 1.8 ESE 33 46 18 25 1012.5 1012.5 4.0
08/06:30am 26.6 26.3 23.9 85 1.9 ESE 32 44 17 24 1012.6 1012.6 4.0
08/06:00am 26.5 26.0 23.8 85 1.9 SE 33 41 18 22 1012.1 1012.1 4.0
08/05:30am 26.4 25.6 23.3 83 2.1 SE 33 44 18 24 1012.2 1012.2 4.0
08/05:00am 26.5 26.6 24.0 86 1.7 SE 30 39 16 21 1012.2 1012.2 4.0
08/04:30am 26.4 25.7 24.1 87 1.6 SE 35 43 19 23 1012.2 1012.2 4.0
08/04:00am 26.5 26.1 24.0 86 1.7 SE 33 41 18 22 1012.3 1012.3 4.0
08/03:30am 26.6 26.0 24.3 87 1.6 SE 35 43 19 23 1012.8 1012.8 4.0
08/03:00am 26.4 26.2 24.4 89 1.4 SE 33 43 18 23 1013.1 1013.1 4.0
08/02:59am 26.5 26.4 24.5 89 1.4 SE 33 43 18 23 1013.1 1013.1 4.0
08/02:40am 26.4 26.1 24.2 88 1.5 SE 33 43 18 23 1013.1 1013.1 3.6
08/02:30am 26.6 26.4 24.4 88 1.5 SE 33 44 18 24 1013.2 1013.2 3.4
08/02:00am 26.9 27.5 24.2 85 1.9 ESE 28 35 15 19 1013.7 1013.7 3.4
08/01:30am 26.9 28.3 24.2 85 1.9 ESE 24 37 13 20 1013.8 1013.8 3.4
08/01:00am 26.9 28.1 24.5 87 1.7 ESE 26 35 14 19 1013.9 1013.9 3.4
08/12:30am 26.9 27.7 24.4 86 1.7 SE 28 39 15 21 1013.9 1013.9 3.4
08/12:00am 26.9 27.3 24.5 87 1.7 SE 30 39 16 21 1013.9 1013.9 3.4
 
Date/Time
WST
Temp
°C
App
Temp
°C
Dew
Point
°C
Rel
Hum
%
Delta-T
°C
Wind Press
QNH
hPa
Press
MSL
hPa
Rain since
9am
mm
Dir  Spd
km/h
Gust
km/h
Spd
kts
Gust
kts
07/11:30pm 27.1 27.1 24.4 85 1.9 SE 32 43 17 23 1013.9 1013.9 3.4
07/11:00pm 27.0 28.4 24.8 88 1.5 ESE 26 33 14 18 1014.0 1014.0 3.4
07/10:30pm 27.0 28.8 24.8 88 1.5 ESE 24 33 13 18 1013.9 1013.9 3.4
07/10:00pm 27.1 29.3 24.9 88 1.5 ESE 22 30 12 16 1013.7 1013.7 3.4
07/09:30pm 27.0 29.1 24.1 84 2.0 ESE 20 32 11 17 1013.7 1013.7 3.4
07/09:00pm 27.2 28.1 23.9 82 2.3 E 26 37 14 20 1013.3 1013.3 3.4
07/08:30pm 27.2 29.5 24.5 85 1.9 ESE 20 32 11 17 1013.0 1013.0 3.4
07/08:00pm 27.1 29.2 24.7 87 1.7 ESE 22 35 12 19 1012.6 1012.6 3.4
07/07:30pm 27.3 29.0 24.6 85 1.9 ESE 24 35 13 19 1012.2 1012.2 3.4
07/07:00pm 27.3 29.7 24.6 85 1.9 ESE 20 33 11 18 1012.3 1012.3 3.4
07/06:30pm 27.4 30.4 24.7 85 1.9 ESE 17 30 9 16 1012.0 1012.0 3.4
07/06:00pm 27.6 30.2 24.6 84 2.1 ESE 19 28 10 15 1011.7 1011.7 3.4
07/05:30pm 27.6 30.0 24.6 84 2.1 ESE 20 37 11 20 1011.6 1011.6 3.4
07/05:00pm 27.7 32.0 25.5 88 1.5 ESE 13 20 7 11 1011.6 1011.6 3.4
07/04:30pm 27.2 30.0 25.0 88 1.5 ESE 19 26 10 14 1011.7 1011.7 3.4
07/04:00pm 27.1 28.8 24.7 87 1.7 SE 24 30 13 16 1011.9 1011.9 3.4
07/03:30pm 27.6 30.4 25.0 86 1.8 ESE 19 30 10 16 1012.0 1012.0 3.4
07/03:00pm 27.5 30.3 24.9 86 1.8 ESE 19 28 10 15 1012.3 1012.3 3.4
07/02:30pm 27.3 30.3 25.3 89 1.4 ESE 19 32 10 17 1012.6 1012.6 3.4
07/02:00pm 26.8 29.3 24.8 89 1.4 ESE 20 32 11 17 1012.9 1012.9 3.4
07/01:30pm 26.3 28.3 25.1 93 0.8 ESE 24 32 13 17 1013.3 1013.3 3.4
07/01:00pm 25.4 28.4 24.7 96 0.5 SE 17 24 9 13 1013.6 1013.6 3.2
07/12:30pm 24.6 23.6 23.0 91 1.1 E 33 56 18 30 1014.0 1014.0 0.2
07/12:27pm 24.8 23.8 22.7 88 1.4 ESE 32 50 17 27 1014.0 1014.0 0.0
07/12:21pm 25.1 24.7 22.4 85 1.8 ESE 28 46 15 25 1013.9 1013.9 0.0
07/12:00pm 25.4 25.3 23.6 90 1.2 ESE 30 44 16 24 1013.8 1013.8 0.0
07/11:48am 25.1 24.4 23.2 89 1.3 ESE 32 50 17 27 1013.7 1013.7 0.0
07/11:30am 25.2 24.4 23.4 90 1.2 ESE 33 44 18 24 1013.8 1013.8 0.0
07/11:00am 26.2 28.4 24.2 89 1.4 E 20 30 11 16 1013.6 1013.6 6.4
07/10:30am 26.0 25.4 24.4 91 1.1 ENE 35 43 19 23 1013.0 1013.0 6.0
07/10:22am 25.9 24.8 24.1 90 1.2 ENE 37 43 20 23 1013.1 1013.1 6.0
07/10:00am 26.0 24.8 24.0 89 1.4 E 37 46 20 25 1013.3 1013.3 5.4
07/09:49am 25.9 23.8 23.8 88 1.4 E 41 48 22 26 1013.1 1013.1 4.8
07/09:30am 25.9 23.8 23.8 88 1.4 ENE 41 48 22 26 1012.6 1012.6 4.6
07/09:00am 25.5 25.0 24.5 94 0.7 ENE 35 44 19 24 1012.2 1012.2 4.6
07/08:37am 25.2 25.8 24.2 94 0.7 E 28 52 15 28 1012.2 1012.2 3.8
07/08:30am 25.5 27.1 24.5 94 0.7 E 24 32 13 17 1012.1 1012.1 2.6
07/08:00am 25.0 26.3 24.0 94 0.7 ESE 24 39 13 21 1011.7 1011.7 2.0
07/07:30am 24.5 20.6 22.9 91 1.1 E 48 61 26 33 1011.6 1011.6 0.0
07/07:00am 25.2 23.2 23.3 89 1.3 E 39 46 21 25 1011.5 1011.5 0.0
07/06:49am 26.5 27.2 23.6 84 2.0 ESE 26 48 14 26 1011.5 1011.5 0.0
07/06:30am 26.9 28.3 24.2 85 1.9 ESE 24 37 13 20 1011.2 1011.2 0.0
07/06:00am 27.1 28.6 24.4 85 1.9 ESE 24 33 13 18 1011.3 1011.3 0.0
07/05:30am 27.1 29.6 24.4 85 1.9 ESE 19 33 10 18 1011.2 1011.2 0.0
07/05:00am 27.1 29.7 24.6 86 1.7 ESE 19 32 10 17 1010.9 1010.9 0.0
07/04:30am 27.1 29.6 24.4 85 1.9 ESE 19 28 10 15 1011.2 1011.2 0.0
07/04:00am 27.1 29.6 24.4 85 1.9 ESE 19 28 10 15 1011.3 1011.3 0.0
07/03:30am 27.1 29.6 24.4 85 1.9 ESE 19 33 10 18 1011.6 1011.6 0.0
07/03:00am 27.1 29.4 24.4 85 1.9 E 20 32 11 17 1011.8 1011.8 0.0
07/02:30am 27.1 29.0 24.4 85 1.9 E 22 33 12 18 1011.9 1011.9 0.0
07/02:00am 27.1 28.8 24.6 86 1.7 E 24 35 13 19 1012.0 1012.0 0.0
07/01:30am 27.0 30.0 24.6 87 1.7 ESE 17 26 9 14 1012.4 1012.4 0.0
07/01:00am 26.9 29.2 24.4 86 1.7 E 20 35 11 19 1012.4 1012.4 0.0
07/12:30am 26.7 28.9 24.2 86 1.7 ESE 20 33 11 18 1012.5 1012.5 0.0
07/12:00am 27.3 30.3 24.6 85 1.9 ESE 17 30 9 16 1012.7 1012.7 0.0
 
Date/Time
WST
Temp
°C
App
Temp
°C
Dew
Point
°C
Rel
Hum
%
Delta-T
°C
Wind Press
QNH
hPa
Press
MSL
hPa
Rain since
9am
mm
Dir  Spd
km/h
Gust
km/h
Spd
kts
Gust
kts
06/11:30pm 27.4 30.3 24.5 84 2.0 ESE 17 30 9 16 1012.6 1012.6 0.0
06/11:00pm 27.3 29.9 24.6 85 1.9 ESE 19 28 10 15 1012.4 1012.4 0.0
06/10:30pm 27.4 29.7 24.5 84 2.0 ESE 20 32 11 17 1012.2 1012.2 0.0
06/10:00pm 27.4 29.2 24.3 83 2.1 ESE 22 30 12 16 1012.0 1012.0 0.0
06/09:30pm 27.4 29.6 24.3 83 2.1 ESE 20 32 11 17 1011.6 1011.6 0.0
06/09:00pm 27.5 29.9 24.6 84 2.0 ESE 20 32 11 17 1011.2 1011.2 0.0
06/08:30pm 27.5 29.2 24.1 82 2.3 E 22 33 12 18 1011.0 1011.0 0.0
06/08:00pm 27.5 30.0 24.4 83 2.2 ESE 19 32 10 17 1010.7 1010.7 0.0
06/07:30pm 27.4 29.5 24.1 82 2.3 ESE 20 30 11 16 1010.5 1010.5 0.0
06/07:00pm 27.5 29.6 24.1 82 2.4 ESE 20 33 11 18 1010.0 1010.0 0.0
06/06:30pm 27.7 29.4 24.1 81 2.5 ESE 22 37 12 20 1009.7 1009.7 0.0
06/06:00pm 27.8 29.8 24.0 80 2.6 ESE 20 32 11 17 1009.5 1009.5 0.0
06/05:30pm 27.9 29.5 23.9 79 2.8 ESE 22 33 12 18 1009.5 1009.5 0.0
06/05:00pm 28.0 29.6 23.8 78 2.9 ESE 22 39 12 21 1009.7 1009.7 0.0
06/04:30pm 28.2 29.9 24.0 78 2.9 ESE 22 37 12 20 1009.9 1009.9 0.0
06/04:00pm 28.3 30.0 24.1 78 2.9 ESE 22 35 12 19 1010.0 1010.0 0.0
06/03:30pm 28.4 29.5 24.4 79 2.8 E 26 37 14 20 1010.5 1010.5 0.0
06/03:00pm 28.5 28.7 24.1 77 3.0 E 30 35 16 19 1010.9 1010.9 0.0
06/02:30pm 28.9 31.0 24.7 78 2.9 ESE 22 33 12 18 1011.4 1011.4 0.0
06/02:00pm 28.9 30.2 24.7 78 2.9 E 26 35 14 19 1011.5 1011.5 0.0
06/01:30pm 28.7 28.6 24.3 77 3.1 E 32 39 17 21 1011.7 1011.7 0.0
06/01:00pm 28.7 28.5 24.3 77 3.1 E 33 41 18 22 1011.9 1011.9 0.0
06/12:30pm 28.6 28.6 24.4 78 2.9 E 32 39 17 21 1011.9 1011.9 0.0
06/12:00pm 28.2 28.1 24.2 79 2.8 E 32 39 17 21 1012.1 1012.1 0.0
06/11:30am 27.8 27.5 23.8 79 2.8 E 32 37 17 20 1012.2 1012.2 0.0
06/11:00am 27.8 27.4 24.0 80 2.6 E 33 39 18 21 1012.2 1012.2 0.2
06/10:30am 27.6 26.9 23.6 79 2.7 E 33 41 18 22 1012.0 1012.0 0.2
06/10:00am 27.4 26.7 23.6 80 2.6 E 33 41 18 22 1011.9 1011.9 0.2
06/09:30am 27.1 25.9 23.3 80 2.6 E 35 41 19 22 1011.4 1011.4 0.2
06/09:00am 26.9 28.0 23.6 82 2.3 E 24 35 13 19 1010.9 1010.9 0.2
06/08:30am 26.7 27.9 23.2 81 2.4 ESE 22 32 12 17 1010.9 1010.9 0.2
06/08:00am 26.6 27.5 23.3 82 2.3 E 24 35 13 19 1010.7 1010.7 0.2
06/07:30am 26.6 28.3 23.1 81 2.4 ESE 19 30 10 16 1010.5 1010.5 0.2
06/07:00am 26.5 28.2 23.0 81 2.4 ESE 19 32 10 17 1010.2 1010.2 0.2
06/06:30am 26.6 27.7 23.1 81 2.4 ESE 22 33 12 18 1010.4 1010.4 0.2
06/06:00am 26.6 28.8 23.3 82 2.3 ESE 17 26 9 14 1010.6 1010.6 0.2
06/05:30am 26.7 28.3 22.8 79 2.6 ESE 19 32 10 17 1010.8 1010.8 0.2
06/05:00am 26.6 28.0 22.9 80 2.5 ESE 20 32 11 17 1010.8 1010.8 0.2
06/04:30am 26.5 28.2 23.0 81 2.4 ESE 19 28 10 15 1010.9 1010.9 0.2
06/04:00am 26.5 27.5 22.8 80 2.5 E 22 32 12 17 1010.9 1010.9 0.2
06/03:30am 26.6 28.0 22.9 80 2.5 ESE 20 30 11 16 1010.8 1010.8 0.2
06/03:00am 26.4 28.8 22.9 81 2.4 ESE 15 30 8 16 1011.2 1011.2 0.2
06/02:30am 26.4 29.4 23.3 83 2.1 ESE 13 20 7 11 1011.5 1011.5 0.2
06/02:00am 26.3 29.2 23.2 83 2.1 ESE 13 20 7 11 1011.7 1011.7 0.2
06/01:30am 26.4 28.0 22.9 81 2.4 ESE 19 28 10 15 1012.0 1012.0 0.2
06/01:00am 26.3 28.3 23.0 82 2.2 ESE 17 26 9 14 1012.2 1012.2 0.2
06/12:30am 26.4 28.3 22.7 80 2.5 ESE 17 24 9 13 1012.1 1012.1 0.2
06/12:00am 26.6 28.2 22.9 80 2.5 ESE 19 28 10 15 1012.4 1012.4 0.2
 
Date/Time
WST
Temp
°C
App
Temp
°C
Dew
Point
°C
Rel
Hum
%
Delta-T
°C
Wind Press
QNH
hPa
Press
MSL
hPa
Rain since
9am
mm
Dir  Spd
km/h
Gust
km/h
Spd
kts
Gust
kts
05/11:30pm 26.7 28.3 22.8 79 2.6 ESE 19 28 10 15 1012.4 1012.4 0.2
05/11:00pm 26.7 28.5 23.2 81 2.4 ESE 19 32 10 17 1012.3 1012.3 0.2

Other formats

Comma delimited format used in spreadsheet applications
http://www.bom.gov.au/fwo/IDW60801/IDW60801.96996.axf

JavaScript Object Notation format (JSON) in row-major order
http://www.bom.gov.au/fwo/IDW60801/IDW60801.96996.json

Data quality

Most of these data are generated automatically and are frequently updated. Quality checks on data are not normally performed. It is possible for incorrect values to appear. Refer to information at About Latest Weather Observations and please check the disclaimer before using these data.